Anedigmi — 2BHF3 — position and weather

sailwx.info

Track history (hours):
 
Tides and Currents Weather Stations Pressure Air Temp Water Temp Dewpoint Dewpoint Depression Visibility Wind Speed Wind Dir Waves Ship Positions

Anedigmi

Last reported at 2014-Sep-22 20:23 UTC. Time now 2014-Oct-30 12:17 UTC.
Position N 43°53' E 008°01'.
Warning: this ship's position is 37 days out of date.

Length 50 m; draft 3.1 m.

Type: Pleasure craft. MMSI: 235066107.

Date/timePositionNaut miles runAvg speedWind from/ knotsBaromVisibWave heightAir tempDewpointWater temp
2014-Sep-22 20:23N 43°53' E 008°01'0 0.0
2014-Sep-22 17:11N 43°53' E 008°01'0 0.0
2014-Sep-22 16:05N 43°53' E 008°01'0 0.0
2014-Sep-22 12:29N 43°53' E 008°01'  
2014-Sep-18 12:31N 43°38' E 007°22'1111.6
2014-Sep-18 11:33N 43°32' E 007°10'6 5.7
2014-Sep-18 10:33N 43°32' E 007°02'0 0.0
2014-Sep-18 09:19N 43°32' E 007°02'0 0.0
2014-Sep-18 08:31N 43°32' E 007°02'0 0.0
2014-Sep-18 07:19N 43°32' E 007°02'0 0.0
2014-Sep-18 06:31N 43°32' E 007°02'0 0.0
2014-Sep-18 05:31N 43°32' E 007°02'0 0.0
2014-Sep-18 04:31N 43°32' E 007°02'0 0.0
2014-Sep-18 03:19N 43°32' E 007°02'0 0.0
2014-Sep-18 02:13N 43°32' E 007°02'0 0.0
2014-Sep-18 01:31N 43°32' E 007°02'0 0.0
2014-Sep-18 00:25N 43°32' E 007°02'0 0.0
2014-Sep-17 23:25N 43°32' E 007°02'0 0.0
2014-Sep-17 22:25N 43°32' E 007°02'0 0.0
2014-Sep-17 21:31N 43°32' E 007°02'0 0.0
2014-Sep-17 20:25N 43°32' E 007°02'0 0.0
2014-Sep-17 19:31N 43°32' E 007°02'0 0.0
2014-Sep-17 18:13N 43°32' E 007°02'0 0.0
2014-Sep-17 17:31N 43°32' E 007°02'0 0.0
2014-Sep-17 16:31N 43°32' E 007°02'0 0.0
2014-Sep-17 15:25N 43°32' E 007°02'0 0.0
2014-Sep-17 14:25N 43°32' E 007°02'0 0.0
2014-Sep-17 13:25N 43°32' E 007°02'0 0.0
2014-Sep-17 12:07N 43°32' E 007°02'0 0.0
2014-Sep-17 11:25N 43°32' E 007°02'0 0.0
2014-Sep-17 10:07N 43°32' E 007°02'0 0.0
2014-Sep-17 09:31N 43°32' E 007°02'0 0.0
2014-Sep-17 08:31N 43°32' E 007°02'0 0.0
2014-Sep-17 07:25N 43°32' E 007°02'0 0.0
2014-Sep-17 06:13N 43°32' E 007°02'0 0.0
2014-Sep-17 05:31N 43°32' E 007°02'0 0.0
2014-Sep-17 04:31N 43°32' E 007°02'0 0.0
2014-Sep-17 03:19N 43°32' E 007°02'0 0.0
2014-Sep-17 01:31N 43°32' E 007°02'0 0.0
2014-Sep-17 00:31N 43°32' E 007°02'0 0.0
2014-Sep-16 23:31N 43°32' E 007°02'0 0.0
2014-Sep-16 22:25N 43°32' E 007°02'0 0.0
2014-Sep-16 19:31N 43°32' E 007°02'0 0.0
2014-Sep-16 17:25N 43°32' E 007°02'0 0.2
2014-Sep-16 16:31N 43°33' E 007°02'8 7.8
2014-Sep-16 15:33N 43°26' E 006°56'1613.2
2014-Sep-16 14:22N 43°14' E 006°42'1 1.7
2014-Sep-16 13:31N 43°14' E 006°40'0 0.0
2014-Sep-16 12:31N 43°14' E 006°40'0 0.0
2014-Sep-16 11:31N 43°14' E 006°40'3 0.1
2014-Sep-15 12:08N 43°16' E 006°38'0 0.1
2014-Sep-15 10:33N 43°16' E 006°38'0 0.0
2014-Sep-15 07:18N 43°16' E 006°38'0 0.0
2014-Sep-15 06:18N 43°16' E 006°38'0 0.0
2014-Sep-15 05:33N 43°16' E 006°38'0 0.0
2014-Sep-15 04:27N 43°16' E 006°38'0 0.0
2014-Sep-15 03:33N 43°16' E 006°38'0 0.0
2014-Sep-15 02:33N 43°16' E 006°38'0 0.0
2014-Sep-15 01:33N 43°16' E 006°38'0 0.0
2014-Sep-15 00:27N 43°16' E 006°38'0 0.0
2014-Sep-14 23:33N 43°16' E 006°38'0 0.0
2014-Sep-14 22:33N 43°16' E 006°38'0 0.0
2014-Sep-14 21:24N 43°16' E 006°38'0 0.0
2014-Sep-14 20:33N 43°16' E 006°38'0 0.0
2014-Sep-14 19:33N 43°16' E 006°38'0 0.0
2014-Sep-14 18:27N 43°16' E 006°38'0 0.0
2014-Sep-14 17:33N 43°16' E 006°38'5 5.0
2014-Sep-14 16:33N 43°19' E 006°43'1413.5
2014-Sep-14 15:33N 43°27' E 006°59'8 7.9
2014-Sep-14 14:30N 43°34' E 007°06'0 0.0
2014-Sep-14 13:24N 43°34' E 007°06'0 0.0
2014-Sep-14 12:30N 43°34' E 007°06'0 0.0
2014-Sep-14 11:30N 43°34' E 007°06'2 2.5
2014-Sep-14 10:33N 43°31' E 007°07'8 5.7
2014-Sep-14 09:08N 43°24' E 007°10'712.5
2014-Sep-14 08:33N 43°30' E 007°06'4 3.3
2014-Sep-14 07:28N 43°34' E 007°06'0 0.0
2014-Sep-14 06:28N 43°34' E 007°06'0 0.0
2014-Sep-14 05:28N 43°34' E 007°06'0 0.0
2014-Sep-14 04:28N 43°34' E 007°06'0 0.0
2014-Sep-14 03:28N 43°34' E 007°06'0 0.0
2014-Sep-14 02:28N 43°34' E 007°06'0 0.0
2014-Sep-14 01:28N 43°34' E 007°06'0 0.0
2014-Sep-13 21:28N 43°34' E 007°06'0 0.0
2014-Sep-13 20:28N 43°34' E 007°06'0 0.0
2014-Sep-13 19:28N 43°34' E 007°06'0 0.1
2014-Sep-13 18:28N 43°34' E 007°06'0 0.0
2014-Sep-13 17:28N 43°34' E 007°06'0 0.0
2014-Sep-13 16:22N 43°34' E 007°06'0 0.0
2014-Sep-13 15:22N 43°34' E 007°06'0 0.0
2014-Sep-13 14:16N 43°34' E 007°06'0 0.0
2014-Sep-13 13:28N 43°34' E 007°06'0 0.0
2014-Sep-13 12:33N 43°34' E 007°06'1 0.5
2014-Sep-13 11:23N 43°33' E 007°07'3 3.5
2014-Sep-13 10:29N 43°32' E 007°03'0 0.0
2014-Sep-13 09:23N 43°32' E 007°03'0 0.0
2014-Sep-13 07:34N 43°32' E 007°03'1312.5
2014-Sep-13 06:33N 43°38' E 007°18'  
Track history (hours):
 
Tides and Currents Weather Stations Pressure Air Temp Water Temp Dewpoint Dewpoint Depression Visibility Wind Speed Wind Dir Waves Ship Positions

Anedigmi

Last reported at 2014-Sep-22 20:23 UTC. Time now 2014-Oct-30 12:17 UTC.
Position N 43°53' E 008°01'.
Warning: this ship's position is 37 days out of date.

Length 50 m; draft 3.1 m.

Type: Pleasure craft. MMSI: 235066107.

Date/timePositionNaut miles runAvg speedWind from/ knotsBaromVisibWave heightAir tempDewpointWater temp
2014-Sep-22 20:23N 43°53' E 008°01'0 0.0
2014-Sep-22 17:11N 43°53' E 008°01'0 0.0
2014-Sep-22 16:05N 43°53' E 008°01'0 0.0
2014-Sep-22 12:29N 43°53' E 008°01'  
2014-Sep-18 12:31N 43°38' E 007°22'1111.6
2014-Sep-18 11:33N 43°32' E 007°10'6 5.7
2014-Sep-18 10:33N 43°32' E 007°02'0 0.0
2014-Sep-18 09:19N 43°32' E 007°02'0 0.0
2014-Sep-18 08:31N 43°32' E 007°02'0 0.0
2014-Sep-18 07:19N 43°32' E 007°02'0 0.0
2014-Sep-18 06:31N 43°32' E 007°02'0 0.0
2014-Sep-18 05:31N 43°32' E 007°02'0 0.0
2014-Sep-18 04:31N 43°32' E 007°02'0 0.0
2014-Sep-18 03:19N 43°32' E 007°02'0 0.0
2014-Sep-18 02:13N 43°32' E 007°02'0 0.0
2014-Sep-18 01:31N 43°32' E 007°02'0 0.0
2014-Sep-18 00:25N 43°32' E 007°02'0 0.0
2014-Sep-17 23:25N 43°32' E 007°02'0 0.0
2014-Sep-17 22:25N 43°32' E 007°02'0 0.0
2014-Sep-17 21:31N 43°32' E 007°02'0 0.0
2014-Sep-17 20:25N 43°32' E 007°02'0 0.0
2014-Sep-17 19:31N 43°32' E 007°02'0 0.0
2014-Sep-17 18:13N 43°32' E 007°02'0 0.0
2014-Sep-17 17:31N 43°32' E 007°02'0 0.0
2014-Sep-17 16:31N 43°32' E 007°02'0 0.0
2014-Sep-17 15:25N 43°32' E 007°02'0 0.0
2014-Sep-17 14:25N 43°32' E 007°02'0 0.0
2014-Sep-17 13:25N 43°32' E 007°02'0 0.0
2014-Sep-17 12:07N 43°32' E 007°02'0 0.0
2014-Sep-17 11:25N 43°32' E 007°02'0 0.0
2014-Sep-17 10:07N 43°32' E 007°02'0 0.0
2014-Sep-17 09:31N 43°32' E 007°02'0 0.0
2014-Sep-17 08:31N 43°32' E 007°02'0 0.0
2014-Sep-17 07:25N 43°32' E 007°02'0 0.0
2014-Sep-17 06:13N 43°32' E 007°02'0 0.0
2014-Sep-17 05:31N 43°32' E 007°02'0 0.0
2014-Sep-17 04:31N 43°32' E 007°02'0 0.0
2014-Sep-17 03:19N 43°32' E 007°02'0 0.0
2014-Sep-17 01:31N 43°32' E 007°02'0 0.0
2014-Sep-17 00:31N 43°32' E 007°02'0 0.0
2014-Sep-16 23:31N 43°32' E 007°02'0 0.0
2014-Sep-16 22:25N 43°32' E 007°02'0 0.0
2014-Sep-16 19:31N 43°32' E 007°02'0 0.0
2014-Sep-16 17:25N 43°32' E 007°02'0 0.2
2014-Sep-16 16:31N 43°33' E 007°02'8 7.8
2014-Sep-16 15:33N 43°26' E 006°56'1613.2
2014-Sep-16 14:22N 43°14' E 006°42'1 1.7
2014-Sep-16 13:31N 43°14' E 006°40'0 0.0
2014-Sep-16 12:31N 43°14' E 006°40'0 0.0
2014-Sep-16 11:31N 43°14' E 006°40'3 0.1
2014-Sep-15 12:08N 43°16' E 006°38'0 0.1
2014-Sep-15 10:33N 43°16' E 006°38'0 0.0
2014-Sep-15 07:18N 43°16' E 006°38'0 0.0
2014-Sep-15 06:18N 43°16' E 006°38'0 0.0
2014-Sep-15 05:33N 43°16' E 006°38'0 0.0
2014-Sep-15 04:27N 43°16' E 006°38'0 0.0
2014-Sep-15 03:33N 43°16' E 006°38'0 0.0
2014-Sep-15 02:33N 43°16' E 006°38'0 0.0
2014-Sep-15 01:33N 43°16' E 006°38'0 0.0
2014-Sep-15 00:27N 43°16' E 006°38'0 0.0
2014-Sep-14 23:33N 43°16' E 006°38'0 0.0
2014-Sep-14 22:33N 43°16' E 006°38'0 0.0
2014-Sep-14 21:24N 43°16' E 006°38'0 0.0
2014-Sep-14 20:33N 43°16' E 006°38'0 0.0
2014-Sep-14 19:33N 43°16' E 006°38'0 0.0
2014-Sep-14 18:27N 43°16' E 006°38'0 0.0
2014-Sep-14 17:33N 43°16' E 006°38'5 5.0
2014-Sep-14 16:33N 43°19' E 006°43'1413.5
2014-Sep-14 15:33N 43°27' E 006°59'8 7.9
2014-Sep-14 14:30N 43°34' E 007°06'0 0.0
2014-Sep-14 13:24N 43°34' E 007°06'0 0.0
2014-Sep-14 12:30N 43°34' E 007°06'0 0.0
2014-Sep-14 11:30N 43°34' E 007°06'2 2.5
2014-Sep-14 10:33N 43°31' E 007°07'8 5.7
2014-Sep-14 09:08N 43°24' E 007°10'712.5
2014-Sep-14 08:33N 43°30' E 007°06'4 3.3
2014-Sep-14 07:28N 43°34' E 007°06'0 0.0
2014-Sep-14 06:28N 43°34' E 007°06'0 0.0
2014-Sep-14 05:28N 43°34' E 007°06'0 0.0
2014-Sep-14 04:28N 43°34' E 007°06'0 0.0
2014-Sep-14 03:28N 43°34' E 007°06'0 0.0
2014-Sep-14 02:28N 43°34' E 007°06'0 0.0
2014-Sep-14 01:28N 43°34' E 007°06'0 0.0
2014-Sep-13 21:28N 43°34' E 007°06'0 0.0
2014-Sep-13 20:28N 43°34' E 007°06'0 0.0
2014-Sep-13 19:28N 43°34' E 007°06'0 0.1
2014-Sep-13 18:28N 43°34' E 007°06'0 0.0
2014-Sep-13 17:28N 43°34' E 007°06'0 0.0
2014-Sep-13 16:22N 43°34' E 007°06'0 0.0
2014-Sep-13 15:22N 43°34' E 007°06'0 0.0
2014-Sep-13 14:16N 43°34' E 007°06'0 0.0
2014-Sep-13 13:28N 43°34' E 007°06'0 0.0
2014-Sep-13 12:33N 43°34' E 007°06'1 0.5
2014-Sep-13 11:23N 43°33' E 007°07'3 3.5
2014-Sep-13 10:29N 43°32' E 007°03'0 0.0
2014-Sep-13 09:23N 43°32' E 007°03'0 0.0
2014-Sep-13 07:34N 43°32' E 007°03'1312.5
2014-Sep-13 06:33N 43°38' E 007°18'  

Dump ship's entire track history